Time;durP1;ratioP1;P1;durP2;ratioP2;P2;SDS_P1;SDS_P2;PMS_P1;PMS_P2;Temp;Humidity;BMP_temperature;BMP_pressure;BME280_temperature;BME280_humidity;BME280_pressure;Samples;Min_cycle;Max_cycle;Signal;HPM_P1;HPM_P2
2021/10/11 00:02:20;;;;;;;22.83;17.15;;;12.30;99.90;;;;;;6183507;23;20441;-91
2021/10/11 00:04:46;;;;;;;25.40;16.63;;;12.20;99.90;;;;;;6156935;23;20324;-89
2021/10/11 00:07:12;;;;;;;25.17;17.63;;;12.20;99.90;;;;;;6183036;23;20023;-90
2021/10/11 00:09:37;;;;;;;21.60;17.13;;;12.10;99.90;;;;;;6157447;23;20005;-90
2021/10/11 00:12:04;;;;;;;23.33;17.45;;;12.10;99.90;;;;;;6185259;23;20005;-88
2021/10/11 00:14:30;;;;;;;21.25;17.02;;;12.10;99.90;;;;;;6185605;23;20001;-93
2021/10/11 00:16:55;;;;;;;21.65;17.20;;;12.10;99.90;;;;;;6159157;23;20060;-93
2021/10/11 00:19:21;;;;;;;24.13;16.70;;;12.10;99.90;;;;;;6160297;23;20031;-90
2021/10/11 00:21:47;;;;;;;25.73;17.17;;;12.10;99.90;;;;;;6184761;23;20008;-89
2021/10/11 00:24:13;;;;;;;24.15;16.83;;;12.10;99.90;;;;;;6179216;23;20002;-89
2021/10/11 00:26:39;;;;;;;25.27;17.27;;;12.10;99.90;;;;;;6181135;23;19997;-90
2021/10/11 00:29:05;;;;;;;25.42;17.77;;;12.10;99.90;;;;;;6181076;23;20016;-91
2021/10/11 00:31:31;;;;;;;22.42;16.63;;;12.00;99.90;;;;;;6180629;23;19997;-89
2021/10/11 00:33:56;;;;;;;21.75;17.08;;;11.90;99.90;;;;;;6168730;23;20501;-89
2021/10/11 00:36:25;;;;;;;21.23;17.35;;;11.90;99.90;;;;;;6183269;23;20009;-89
2021/10/11 00:38:50;;;;;;;26.92;17.50;;;11.90;99.90;;;;;;6183569;23;20001;-89
2021/10/11 00:41:16;;;;;;;23.90;16.67;;;11.90;99.90;;;;;;6183522;23;20652;-89
2021/10/11 00:43:45;;;;;;;21.85;16.63;;;11.90;99.90;;;;;;6183770;23;20084;-89
2021/10/11 00:46:10;;;;;;;23.77;16.05;;;11.90;99.90;;;;;;6182973;23;20085;-90
2021/10/11 00:48:36;;;;;;;24.30;16.70;;;11.90;99.90;;;;;;6156839;23;20017;-90
2021/10/11 00:51:04;;;;;;;21.67;17.02;;;11.90;99.90;;;;;;6183730;23;20008;-90
2021/10/11 00:53:29;;;;;;;24.13;17.15;;;11.90;99.90;;;;;;6156925;23;20083;-89
2021/10/11 00:55:56;;;;;;;25.05;17.45;;;11.80;99.90;;;;;;6182902;23;20044;-90
2021/10/11 00:58:21;;;;;;;23.67;17.42;;;11.80;99.90;;;;;;6183002;23;20005;-89
2021/10/11 01:00:48;;;;;;;24.08;17.38;;;11.70;99.90;;;;;;6182632;23;20430;-89
2021/10/11 01:03:14;;;;;;;21.83;16.92;;;11.70;99.90;;;;;;6156072;23;20004;-89
2021/10/11 01:05:40;;;;;;;26.42;18.52;;;11.80;99.90;;;;;;6182657;23;20012;-90
2021/10/11 01:08:06;;;;;;;25.55;18.30;;;11.70;99.90;;;;;;6156494;23;20005;-89
2021/10/11 01:10:31;;;;;;;25.25;18.95;;;11.60;99.90;;;;;;6156577;23;20009;-93
2021/10/11 01:12:57;;;;;;;25.17;17.85;;;11.60;99.90;;;;;;6182939;23;20008;-89
2021/10/11 01:15:23;;;;;;;26.10;19.10;;;11.50;99.90;;;;;;6182657;23;20020;-88
2021/10/11 01:17:50;;;;;;;32.10;19.10;;;11.60;99.90;;;;;;6182414;23;19997;-89
2021/10/11 01:20:16;;;;;;;26.13;18.67;;;11.60;99.90;;;;;;6156087;23;20430;-89
2021/10/11 01:22:43;;;;;;;23.92;18.40;;;11.50;99.90;;;;;;6183071;23;20055;-89
2021/10/11 01:25:12;;;;;;;27.77;18.65;;;11.50;99.90;;;;;;6182985;23;20053;-89
2021/10/11 01:27:38;;;;;;;21.98;17.25;;;11.50;99.90;;;;;;6156197;23;20427;-89
2021/10/11 01:30:05;;;;;;;27.17;17.88;;;11.50;99.90;;;;;;6156199;23;20016;-89
2021/10/11 01:32:32;;;;;;;23.88;17.92;;;11.40;99.90;;;;;;6155938;23;20461;-94
2021/10/11 01:34:58;;;;;;;25.05;17.85;;;11.40;99.90;;;;;;6182362;23;20044;-91
2021/10/11 01:37:24;;;;;;;25.85;18.52;;;11.30;99.90;;;;;;6155998;23;20009;-90
2021/10/11 01:39:49;;;;;;;24.20;17.95;;;11.30;99.90;;;;;;6182374;23;20004;-89
2021/10/11 01:42:15;;;;;;;28.77;18.83;;;11.30;99.90;;;;;;6157230;23;20009;-89
2021/10/11 01:44:41;;;;;;;23.77;19.08;;;11.30;99.90;;;;;;6184840;23;20029;-89
2021/10/11 01:47:07;;;;;;;28.05;20.08;;;11.30;99.90;;;;;;6158199;23;20092;-89
2021/10/11 01:49:33;;;;;;;28.63;18.75;;;11.30;99.90;;;;;;6184182;23;20441;-90
2021/10/11 01:51:59;;;;;;;24.85;18.83;;;11.30;99.90;;;;;;6184770;23;20071;-89
2021/10/11 01:54:24;;;;;;;28.45;20.08;;;11.30;99.90;;;;;;6184309;23;19997;-89
2021/10/11 01:56:51;;;;;;;30.35;19.65;;;11.30;99.90;;;;;;6157673;23;20469;-90
2021/10/11 01:59:17;;;;;;;27.38;20.65;;;11.20;99.90;;;;;;6157636;23;20056;-94
2021/10/11 02:01:43;;;;;;;29.33;20.80;;;11.20;99.90;;;;;;6183790;23;20001;-94
2021/10/11 02:04:08;;;;;;;29.05;20.48;;;11.20;99.90;;;;;;6184223;23;20505;-89
2021/10/11 02:06:34;;;;;;;31.08;20.33;;;11.20;99.90;;;;;;6184170;23;20001;-88
2021/10/11 02:09:00;;;;;;;28.63;19.88;;;11.30;99.90;;;;;;6157989;23;20458;-89
2021/10/11 02:11:28;;;;;;;25.70;20.10;;;11.30;99.90;;;;;;6157252;23;20458;-90
2021/10/11 02:13:55;;;;;;;29.92;20.88;;;11.30;99.90;;;;;;6184188;23;20001;-90
2021/10/11 02:16:20;;;;;;;29.63;21.48;;;11.30;99.90;;;;;;6183387;23;20523;-89
2021/10/11 02:18:49;;;;;;;27.42;20.88;;;11.30;99.90;;;;;;6157786;23;20001;-91
2021/10/11 02:21:15;;;;;;;30.00;21.90;;;11.20;99.90;;;;;;6157443;23;20009;-89
2021/10/11 02:23:40;;;;;;;29.08;20.98;;;11.20;99.90;;;;;;6184077;23;20004;-90
2021/10/11 02:26:06;;;;;;;32.88;21.33;;;11.20;99.90;;;;;;6184183;23;20033;-89
2021/10/11 02:28:32;;;;;;;33.08;21.00;;;11.20;99.90;;;;;;6183660;23;20001;-89
2021/10/11 02:30:58;;;;;;;30.20;20.52;;;11.10;99.90;;;;;;6157713;23;20028;-89
2021/10/11 02:33:25;;;;;;;27.80;19.48;;;11.10;99.90;;;;;;6183530;23;20028;-89
2021/10/11 02:35:51;;;;;;;29.65;21.00;;;11.20;99.90;;;;;;6183646;23;20013;-92
2021/10/11 02:38:17;;;;;;;30.35;20.83;;;11.10;99.90;;;;;;6184197;23;20491;-89
2021/10/11 02:40:42;;;;;;;27.38;20.73;;;11.10;99.90;;;;;;6183991;23;20009;-89
2021/10/11 02:43:08;;;;;;;28.98;20.17;;;11.10;99.90;;;;;;6184164;23;20008;-89
2021/10/11 02:45:33;;;;;;;27.50;21.27;;;11.10;99.90;;;;;;6184024;23;20089;-89
2021/10/11 02:48:03;;;;;;;30.23;20.08;;;11.10;99.90;;;;;;6183328;23;20059;-89
2021/10/11 02:50:29;;;;;;;28.83;20.42;;;11.00;99.90;;;;;;6157510;23;20015;-89
2021/10/11 02:52:55;;;;;;;28.52;21.40;;;10.90;99.90;;;;;;6183462;23;20001;-89
2021/10/11 02:55:21;;;;;;;29.27;20.60;;;10.90;99.90;;;;;;6183645;23;20346;-89
2021/10/11 02:57:47;;;;;;;31.27;20.35;;;10.80;99.90;;;;;;6157251;23;20001;-89
2021/10/11 03:00:13;;;;;;;27.83;20.35;;;10.70;99.90;;;;;;6157897;23;20012;-90
2021/10/11 03:02:39;;;;;;;31.40;22.10;;;10.70;99.90;;;;;;6157723;23;20001;-89
2021/10/11 03:05:05;;;;;;;28.27;20.38;;;10.70;99.90;;;;;;6184045;23;20001;-89
2021/10/11 03:07:31;;;;;;;31.20;21.05;;;10.70;99.90;;;;;;6157383;23;20453;-89
2021/10/11 03:09:56;;;;;;;32.28;21.35;;;10.70;99.90;;;;;;6157042;23;20002;-88
2021/10/11 03:12:22;;;;;;;35.88;22.75;;;10.70;99.90;;;;;;6183186;23;20029;-90
2021/10/11 03:14:49;;;;;;;33.17;23.10;;;10.60;99.90;;;;;;6157442;23;20008;-89
2021/10/11 03:17:15;;;;;;;34.03;21.92;;;10.60;99.90;;;;;;6183418;23;20009;-94
2021/10/11 03:19:40;;;;;;;31.75;21.70;;;10.70;99.90;;;;;;6184518;23;20020;-93
2021/10/11 03:22:06;;;;;;;29.98;21.88;;;10.70;99.90;;;;;;6157914;23;20005;-90
2021/10/11 03:24:32;;;;;;;33.53;22.63;;;10.70;99.90;;;;;;6157245;23;20403;-90
2021/10/11 03:26:58;;;;;;;33.53;23.80;;;10.70;99.90;;;;;;6157382;23;20596;-89
2021/10/11 03:29:23;;;;;;;31.90;23.55;;;10.70;99.90;;;;;;6158004;23;20384;-89
2021/10/11 03:31:49;;;;;;;43.00;25.77;;;10.70;99.90;;;;;;6162303;23;20080;-88
2021/10/11 03:34:15;;;;;;;35.97;24.63;;;10.70;99.90;;;;;;6160851;23;20438;-91
2021/10/11 03:36:42;;;;;;;35.60;24.63;;;10.70;99.90;;;;;;6183291;23;20013;-89
2021/10/11 03:39:08;;;;;;;34.17;23.58;;;10.70;99.90;;;;;;6156763;23;20020;-90
2021/10/11 03:41:34;;;;;;;34.00;24.67;;;10.70;99.90;;;;;;6156599;23;20393;-89
2021/10/11 03:44:03;;;;;;;35.05;23.15;;;10.80;99.90;;;;;;6183320;23;20001;-89
2021/10/11 03:46:30;;;;;;;33.83;24.38;;;10.80;99.90;;;;;;6156684;23;20016;-89
2021/10/11 03:48:55;;;;;;;33.45;24.27;;;10.80;99.90;;;;;;6156234;23;20013;-90
2021/10/11 03:51:21;;;;;;;34.13;23.73;;;10.80;99.90;;;;;;6157000;23;20063;-89
2021/10/11 03:53:53;;;;;;;32.95;23.70;;;10.80;99.90;;;;;;6156943;23;20021;-89
2021/10/11 03:56:18;;;;;;;33.95;22.02;;;10.80;99.90;;;;;;6183285;23;20017;-90
2021/10/11 03:58:44;;;;;;;32.10;23.13;;;10.80;99.90;;;;;;6182460;23;20457;-89
2021/10/11 04:01:10;;;;;;;33.40;24.10;;;10.80;99.90;;;;;;6156667;23;20024;-89
2021/10/11 04:03:35;;;;;;;34.15;24.50;;;10.80;99.90;;;;;;6182817;23;19997;-89
2021/10/11 04:06:01;;;;;;;38.33;25.80;;;10.70;99.90;;;;;;6156927;23;20005;-89
2021/10/11 04:08:38;;;;;;;35.63;24.58;;;10.70;99.90;;;;;;6156967;23;20450;-89
2021/10/11 04:13:37;;;;;;;40.20;25.20;;;10.70;99.90;;;;;;6183292;23;20590;-90
2021/10/11 04:16:03;;;;;;;36.30;25.33;;;10.60;99.90;;;;;;6156545;23;20088;-89
2021/10/11 04:18:29;;;;;;;35.28;24.20;;;10.60;99.90;;;;;;6183175;23;19997;-89
2021/10/11 04:20:55;;;;;;;41.17;25.83;;;10.60;99.90;;;;;;6182774;23;20008;-90
2021/10/11 04:23:20;;;;;;;35.72;25.38;;;10.60;99.90;;;;;;6182879;23;20024;-89
2021/10/11 04:25:46;;;;;;;35.50;25.13;;;10.60;99.90;;;;;;6182661;23;20334;-89
2021/10/11 04:28:14;;;;;;;38.38;24.80;;;10.60;99.90;;;;;;6182975;23;20001;-90
2021/10/11 04:30:41;;;;;;;39.00;24.67;;;10.50;99.90;;;;;;6183163;23;19997;-89
2021/10/11 04:33:07;;;;;;;45.83;26.15;;;10.50;99.90;;;;;;6183028;23;20012;-93
2021/10/11 04:35:33;;;;;;;35.50;25.15;;;10.40;99.90;;;;;;6183289;23;20138;-93
2021/10/11 04:38:00;;;;;;;34.22;24.33;;;10.40;99.90;;;;;;6156842;23;20001;-88
2021/10/11 04:40:25;;;;;;;33.25;24.63;;;10.40;99.90;;;;;;6183198;23;20059;-90
2021/10/11 04:42:51;;;;;;;38.40;25.27;;;10.30;99.90;;;;;;6183811;23;20032;-89
2021/10/11 04:45:17;;;;;;;38.47;24.33;;;10.30;99.90;;;;;;6183870;23;20005;-90
2021/10/11 04:47:43;;;;;;;37.92;26.23;;;10.20;99.90;;;;;;6155923;23;20455;-89
2021/10/11 04:50:09;;;;;;;36.60;24.63;;;10.20;99.90;;;;;;6182579;23;20013;-90
2021/10/11 04:52:34;;;;;;;36.75;25.52;;;10.20;99.90;;;;;;6156628;23;20005;-90
2021/10/11 04:55:00;;;;;;;38.45;25.25;;;10.10;99.90;;;;;;6156452;23;20075;-91
2021/10/11 04:57:26;;;;;;;36.42;24.33;;;10.10;99.90;;;;;;6156079;23;20013;-90
2021/10/11 04:59:52;;;;;;;34.08;24.50;;;10.10;99.90;;;;;;6183247;23;20002;-90
2021/10/11 05:02:17;;;;;;;40.78;26.05;;;10.10;99.90;;;;;;6182926;23;20012;-90
2021/10/11 05:04:43;;;;;;;36.70;25.60;;;10.00;99.90;;;;;;6156702;23;20005;-90
2021/10/11 05:07:09;;;;;;;40.72;26.35;;;10.10;99.90;;;;;;6183087;23;20009;-91
2021/10/11 05:09:35;;;;;;;38.90;26.17;;;10.10;99.90;;;;;;6156674;23;20009;-91
2021/10/11 05:12:01;;;;;;;40.28;25.40;;;10.10;99.90;;;;;;6157843;23;20005;-90
2021/10/11 05:14:27;;;;;;;37.80;26.38;;;10.10;99.90;;;;;;6157665;23;20181;-90
2021/10/11 05:16:54;;;;;;;41.45;27.60;;;10.10;99.90;;;;;;6159523;23;20065;-90
2021/10/11 05:19:26;;;;;;;37.38;25.60;;;10.10;99.90;;;;;;6160604;23;20001;-89
2021/10/11 05:21:53;;;;;;;40.15;27.02;;;10.10;99.90;;;;;;6163427;23;20009;-90
2021/10/11 05:24:19;;;;;;;40.10;26.83;;;10.10;99.90;;;;;;6190658;23;20024;-90
2021/10/11 05:26:45;;;;;;;40.30;27.55;;;10.20;99.90;;;;;;6159486;23;20009;-90
2021/10/11 05:29:11;;;;;;;40.88;27.73;;;10.10;99.90;;;;;;6189855;23;20000;-91
2021/10/11 05:31:37;;;;;;;40.55;28.42;;;10.20;99.90;;;;;;6158037;23;20005;-90
2021/10/11 05:34:04;;;;;;;43.88;29.13;;;10.20;99.90;;;;;;6184506;23;20001;-90
2021/10/11 05:36:31;;;;;;;40.88;28.27;;;10.10;99.90;;;;;;6157559;23;20013;-88
2021/10/11 05:38:58;;;;;;;46.70;29.48;;;10.20;99.90;;;;;;6186079;23;19993;-88
2021/10/11 05:41:23;;;;;;;46.03;31.15;;;10.20;99.90;;;;;;6187605;23;20032;-89
2021/10/11 05:43:49;;;;;;;52.45;31.98;;;10.10;99.90;;;;;;6184461;23;19997;-89
2021/10/11 05:46:15;;;;;;;48.17;33.25;;;10.20;99.90;;;;;;6184117;23;20020;-88
2021/10/11 05:48:41;;;;;;;50.35;33.22;;;10.10;99.90;;;;;;6157473;23;20020;-89
2021/10/11 05:51:06;;;;;;;51.17;34.67;;;10.10;99.90;;;;;;6183825;23;20005;-88
2021/10/11 05:53:32;;;;;;;50.13;33.38;;;10.10;99.90;;;;;;6157031;23;20009;-89
2021/10/11 05:55:57;;;;;;;52.65;32.90;;;10.10;99.90;;;;;;6188342;23;20092;-89
2021/10/11 05:58:23;;;;;;;51.15;33.67;;;10.20;99.90;;;;;;6184334;23;20005;-90
2021/10/11 06:00:49;;;;;;;51.30;33.42;;;10.20;99.90;;;;;;6190825;23;20023;-91
2021/10/11 06:03:14;;;;;;;48.55;32.25;;;10.20;99.90;;;;;;6190065;23;20000;-91
2021/10/11 06:05:40;;;;;;;50.75;34.78;;;10.20;99.90;;;;;;6157277;23;20012;-89
2021/10/11 06:08:06;;;;;;;56.58;34.00;;;10.20;99.90;;;;;;6184469;23;20076;-90
2021/10/11 06:10:31;;;;;;;49.00;32.15;;;10.10;99.90;;;;;;6156705;23;20065;-90
2021/10/11 06:12:57;;;;;;;49.22;34.03;;;10.20;99.90;;;;;;6160936;23;20021;-90
2021/10/11 06:15:23;;;;;;;53.25;34.15;;;10.20;99.90;;;;;;6187721;23;20064;-88
2021/10/11 06:17:48;;;;;;;47.65;33.67;;;10.20;99.90;;;;;;6182485;23;20004;-88
2021/10/11 06:20:14;;;;;;;53.92;33.88;;;10.20;99.90;;;;;;6183013;23;20005;-89
2021/10/11 06:22:40;;;;;;;56.58;35.38;;;10.20;99.90;;;;;;6157176;23;20012;-89
2021/10/11 06:25:06;;;;;;;57.28;35.50;;;10.20;99.90;;;;;;6156261;23;20063;-88
2021/10/11 06:27:32;;;;;;;55.53;36.08;;;10.20;99.90;;;;;;6182163;23;20561;-88
2021/10/11 06:29:58;;;;;;;54.60;35.70;;;10.20;99.90;;;;;;6155853;23;20012;-87
2021/10/11 06:32:24;;;;;;;56.47;35.95;;;10.20;99.90;;;;;;6182623;23;19997;-88
2021/10/11 06:34:50;;;;;;;58.25;37.25;;;10.30;99.90;;;;;;6182551;23;20458;-87
2021/10/11 06:37:16;;;;;;;64.85;39.00;;;10.20;99.90;;;;;;6182214;23;20009;-88
2021/10/11 06:39:41;;;;;;;64.57;38.42;;;10.20;99.90;;;;;;6183425;23;19997;-89
2021/10/11 06:42:07;;;;;;;60.63;38.80;;;10.20;99.90;;;;;;6183029;23;20005;-88
2021/10/11 06:44:33;;;;;;;63.08;40.15;;;10.20;99.90;;;;;;6183378;23;19998;-86
2021/10/11 06:46:59;;;;;;;58.03;37.80;;;10.20;99.90;;;;;;6180590;23;20060;-86
2021/10/11 06:49:25;;;;;;;59.40;38.78;;;10.30;99.90;;;;;;6182322;23;20071;-85
2021/10/11 06:51:50;;;;;;;58.97;37.78;;;10.30;99.90;;;;;;6182769;23;20068;-88
2021/10/11 06:54:16;;;;;;;67.72;38.97;;;10.40;99.90;;;;;;6182483;23;20008;-88
2021/10/11 06:56:42;;;;;;;60.72;40.15;;;10.40;99.90;;;;;;6181439;23;20019;-87
2021/10/11 06:59:08;;;;;;;61.00;39.03;;;10.40;99.90;;;;;;6182595;23;20001;-87
2021/10/11 07:01:34;;;;;;;62.88;39.83;;;10.50;99.90;;;;;;6182478;23;20004;-87
2021/10/11 07:04:00;;;;;;;64.32;39.17;;;10.50;99.90;;;;;;6156416;23;20000;-88
2021/10/11 07:06:26;;;;;;;64.15;41.28;;;10.50;99.90;;;;;;6180723;23;20076;-88
2021/10/11 07:08:52;;;;;;;66.30;41.25;;;10.40;99.90;;;;;;6156253;23;20025;-88
2021/10/11 07:11:18;;;;;;;60.13;39.83;;;10.50;99.90;;;;;;6184879;23;20117;-85
2021/10/11 07:13:44;;;;;;;58.33;39.17;;;10.60;99.90;;;;;;6182751;23;20001;-86
2021/10/11 07:16:10;;;;;;;71.60;43.65;;;10.60;99.90;;;;;;6181162;23;20068;-87
2021/10/11 07:18:37;;;;;;;66.53;41.70;;;10.70;99.90;;;;;;6182104;23;20007;-88
2021/10/11 07:21:05;;;;;;;65.90;43.00;;;10.70;99.90;;;;;;6182161;23;20008;-88
2021/10/11 07:23:32;;;;;;;65.30;40.63;;;10.80;99.90;;;;;;6189077;23;19997;-87
2021/10/11 07:25:58;;;;;;;63.72;41.97;;;10.90;99.90;;;;;;6158163;23;20009;-87
2021/10/11 07:28:25;;;;;;;68.40;42.88;;;11.00;99.90;;;;;;6181353;23;20000;-87
2021/10/11 07:30:52;;;;;;;64.90;42.33;;;11.10;99.90;;;;;;6156613;23;20543;-87
2021/10/11 07:33:21;;;;;;;66.90;41.78;;;11.10;99.90;;;;;;6184365;23;19997;-87
2021/10/11 07:35:48;;;;;;;70.00;43.10;;;11.20;99.90;;;;;;6181229;23;20021;-87
2021/10/11 07:38:14;;;;;;;69.75;43.58;;;11.30;99.90;;;;;;6182509;23;20001;-88
2021/10/11 07:40:41;;;;;;;70.20;43.40;;;11.40;99.90;;;;;;6182649;23;20008;-86
2021/10/11 07:43:06;;;;;;;68.07;42.80;;;11.50;99.90;;;;;;6182575;23;20358;-87
2021/10/11 07:45:32;;;;;;;69.00;42.90;;;11.60;99.90;;;;;;6180113;23;19997;-85
2021/10/11 07:47:58;;;;;;;67.07;44.47;;;11.60;99.90;;;;;;6180011;23;20025;-86
2021/10/11 07:50:24;;;;;;;71.25;44.25;;;11.70;99.90;;;;;;6181102;23;19997;-85
2021/10/11 07:52:50;;;;;;;69.13;43.97;;;11.70;99.90;;;;;;6181088;23;20012;-86
2021/10/11 07:55:15;;;;;;;70.95;44.67;;;11.80;99.90;;;;;;6180449;23;20047;-86
2021/10/11 07:57:42;;;;;;;65.85;43.92;;;11.80;99.90;;;;;;6179050;23;20009;-86
2021/10/11 08:00:20;;;;;;;66.80;43.70;;;11.90;99.90;;;;;;6179792;23;19997;-86
2021/10/11 08:02:46;;;;;;;72.45;43.97;;;11.90;99.90;;;;;;6153741;23;20460;-86
2021/10/11 08:05:14;;;;;;;68.15;43.42;;;11.90;99.90;;;;;;6179499;23;20005;-86
2021/10/11 08:07:44;;;;;;;70.85;45.53;;;12.00;99.90;;;;;;6152316;23;20005;-86
2021/10/11 08:10:12;;;;;;;69.05;44.65;;;12.00;99.90;;;;;;6153423;23;20028;-86
2021/10/11 08:12:41;;;;;;;73.13;46.30;;;12.10;99.90;;;;;;6181067;23;20015;-86
2021/10/11 08:15:08;;;;;;;75.55;47.55;;;12.20;99.90;;;;;;6180027;23;20049;-86
2021/10/11 08:17:34;;;;;;;70.05;46.17;;;12.20;99.90;;;;;;6179640;23;20067;-86
2021/10/11 08:20:00;;;;;;;65.05;43.83;;;12.20;99.90;;;;;;6180392;23;20001;-86
2021/10/11 08:22:25;;;;;;;71.03;47.40;;;12.40;99.90;;;;;;6180345;23;20005;-86
2021/10/11 08:24:52;;;;;;;66.53;45.00;;;12.50;99.90;;;;;;6180095;23;19997;-86
2021/10/11 08:27:19;;;;;;;73.28;45.78;;;12.50;99.90;;;;;;6185810;23;20031;-86
2021/10/11 08:29:51;;;;;;;71.35;46.38;;;12.60;99.90;;;;;;6187851;23;20327;-86
2021/10/11 08:32:24;;;;;;;69.22;46.72;;;12.70;99.90;;;;;;6156072;23;20013;-88
2021/10/11 08:34:51;;;;;;;72.68;48.20;;;12.80;99.90;;;;;;6180420;23;20012;-85
2021/10/11 08:37:16;;;;;;;69.30;46.95;;;12.80;99.90;;;;;;6180288;23;20016;-86
2021/10/11 08:39:42;;;;;;;77.05;47.92;;;12.90;99.90;;;;;;6156333;23;20017;-86
2021/10/11 08:42:11;;;;;;;74.57;47.53;;;13.00;99.90;;;;;;6156591;23;20060;-86
2021/10/11 08:44:37;;;;;;;71.50;46.55;;;13.10;99.90;;;;;;6155987;23;20084;-86
2021/10/11 08:47:03;;;;;;;71.85;48.00;;;13.30;99.90;;;;;;6184613;23;20008;-87
2021/10/11 08:49:29;;;;;;;74.70;48.35;;;13.20;99.90;;;;;;6160330;23;20016;-87
2021/10/11 08:51:55;;;;;;;74.97;48.47;;;13.30;99.90;;;;;;6160441;23;20028;-87
2021/10/11 08:54:21;;;;;;;72.20;48.88;;;13.40;99.90;;;;;;6190687;23;19997;-86
2021/10/11 08:56:47;;;;;;;75.72;50.28;;;13.50;99.90;;;;;;6189397;23;20292;-75
2021/10/11 08:59:13;;;;;;;82.55;52.28;;;13.60;99.90;;;;;;6189150;23;20349;-76
2021/10/11 09:01:39;;;;;;;79.30;51.15;;;13.60;99.90;;;;;;6187966;23;20028;-74
2021/10/11 09:04:18;;;;;;;76.20;49.25;;;13.50;99.90;;;;;;6184843;23;20061;-74
2021/10/11 09:07:07;;;;;;;79.10;50.60;;;13.60;99.90;;;;;;6182055;23;20032;-74
2021/10/11 09:09:43;;;;;;;81.70;52.33;;;13.80;99.90;;;;;;6169892;23;20013;-76
2021/10/11 09:12:20;;;;;;;78.60;52.47;;;13.90;99.90;;;;;;6182752;23;20169;-76
2021/10/11 09:15:08;;;;;;;76.25;50.13;;;14.00;99.90;;;;;;6183261;23;19997;-84
2021/10/11 09:17:40;;;;;;;75.90;50.70;;;14.10;99.90;;;;;;6183779;23;20341;-74
2021/10/11 09:20:12;;;;;;;82.00;54.45;;;14.30;99.90;;;;;;6181262;23;20377;-74
2021/10/11 09:22:39;;;;;;;77.68;49.95;;;14.30;99.90;;;;;;6182748;23;20004;-77
2021/10/11 09:25:06;;;;;;;79.47;53.10;;;14.30;99.90;;;;;;6190787;23;20056;-84
2021/10/11 09:27:53;;;;;;;77.13;51.10;;;14.40;99.90;;;;;;6161935;23;20012;-84
2021/10/11 09:30:27;;;;;;;79.10;50.53;;;14.50;99.90;;;;;;6185181;23;19997;-86
2021/10/11 09:33:12;;;;;;;74.57;49.15;;;14.70;99.90;;;;;;6191393;23;20335;-87
2021/10/11 09:35:38;;;;;;;67.93;47.88;;;14.80;99.90;;;;;;6190737;23;19997;-87
2021/10/11 09:38:16;;;;;;;73.32;48.22;;;14.80;99.90;;;;;;6191537;23;19993;-87
2021/10/11 09:40:42;;;;;;;72.15;48.00;;;14.90;99.90;;;;;;6165186;23;19993;-87
2021/10/11 09:43:13;;;;;;;68.18;46.10;;;15.00;99.90;;;;;;6184514;23;20237;-87
2021/10/11 09:45:39;;;;;;;71.90;47.90;;;15.00;99.90;;;;;;6155458;23;20047;-87
2021/10/11 09:48:06;;;;;;;64.10;44.42;;;15.00;99.90;;;;;;6181467;23;20017;-87
2021/10/11 09:50:33;;;;;;;63.28;44.22;;;15.10;99.90;;;;;;6180077;23;20045;-86
2021/10/11 09:52:59;;;;;;;65.93;44.20;;;15.20;99.90;;;;;;6181409;23;20076;-87
2021/10/11 09:55:25;;;;;;;61.70;43.05;;;15.30;99.90;;;;;;6181559;23;20055;-86
2021/10/11 09:57:51;;;;;;;63.35;43.53;;;15.40;99.90;;;;;;6155431;23;20001;-87
2021/10/11 10:00:17;;;;;;;61.13;43.42;;;15.50;99.90;;;;;;6181597;23;20040;-87
2021/10/11 10:02:46;;;;;;;58.40;42.22;;;15.50;99.90;;;;;;6182361;23;20452;-87
2021/10/11 10:05:15;;;;;;;60.38;43.08;;;15.60;99.90;;;;;;6183289;23;20001;-86
2021/10/11 10:07:46;;;;;;;60.75;41.15;;;15.60;99.90;;;;;;6184316;23;20035;-87
2021/10/11 10:10:13;;;;;;;62.90;40.35;;;15.70;99.90;;;;;;6157131;23;20076;-87
2021/10/11 10:12:47;;;;;;;56.88;38.95;;;15.80;99.90;;;;;;6183466;23;20059;-87
2021/10/11 10:15:23;;;;;;;62.33;40.37;;;15.80;99.90;;;;;;6183552;23;20380;-87
2021/10/11 10:18:05;;;;;;;57.60;38.40;;;15.90;99.90;;;;;;6157138;23;20902;-87
2021/10/11 10:20:31;;;;;;;62.33;40.50;;;16.00;99.90;;;;;;6156747;23;20052;-86
2021/10/11 10:22:59;;;;;;;57.00;40.03;;;16.00;99.90;;;;;;6183403;23;20011;-86
2021/10/11 10:25:24;;;;;;;50.75;36.70;;;16.10;99.90;;;;;;6183160;23;20012;-84
2021/10/11 10:27:54;;;;;;;54.20;38.38;;;16.10;99.90;;;;;;6183064;23;20001;-85
2021/10/11 10:30:25;;;;;;;53.30;37.78;;;16.20;99.90;;;;;;6183404;23;20218;-85
2021/10/11 10:33:16;;;;;;;47.90;35.35;;;16.30;99.90;;;;;;6156621;23;20088;-86
2021/10/11 10:35:47;;;;;;;56.83;36.22;;;16.40;99.90;;;;;;6182954;23;20012;-85
2021/10/11 10:38:21;;;;;;;51.28;35.60;;;16.50;99.90;;;;;;6156328;23;20174;-85
2021/10/11 10:40:48;;;;;;;49.03;35.07;;;16.50;99.90;;;;;;6182896;23;20013;-85
2021/10/11 10:43:17;;;;;;;49.03;35.15;;;16.60;99.90;;;;;;6156756;23;20286;-85
2021/10/11 10:45:45;;;;;;;51.70;35.72;;;16.60;99.90;;;;;;6183248;23;20076;-85
2021/10/11 10:48:21;;;;;;;51.08;36.22;;;16.60;99.90;;;;;;6182623;23;20009;-85
2021/10/11 10:50:50;;;;;;;46.47;33.80;;;16.70;99.90;;;;;;6183544;23;20426;-85
2021/10/11 10:53:17;;;;;;;41.40;27.98;;;16.90;99.90;;;;;;6182967;23;20004;-85
2021/10/11 10:55:43;;;;;;;38.53;26.92;;;17.10;99.90;;;;;;6156080;23;20017;-84
2021/10/11 10:58:11;;;;;;;37.92;27.10;;;17.20;99.90;;;;;;6182849;23;20411;-84
2021/10/11 11:00:38;;;;;;;30.83;23.65;;;17.30;99.90;;;;;;6183067;23;20005;-84
2021/10/11 11:03:07;;;;;;;30.80;24.20;;;17.20;99.90;;;;;;6183336;23;20057;-84
2021/10/11 11:05:33;;;;;;;32.42;24.05;;;17.30;99.90;;;;;;6183173;23;20011;-84
2021/10/11 11:07:59;;;;;;;30.92;23.83;;;17.30;99.90;;;;;;6182872;23;20029;-85
2021/10/11 11:10:31;;;;;;;29.85;21.58;;;17.40;99.90;;;;;;6183012;23;20427;-85
2021/10/11 11:12:59;;;;;;;31.20;22.75;;;17.40;99.90;;;;;;6182181;23;19998;-85
2021/10/11 11:15:31;;;;;;;30.35;23.88;;;17.40;99.90;;;;;;6182360;23;20005;-84
2021/10/11 11:17:59;;;;;;;30.60;22.25;;;17.40;99.90;;;;;;6182442;23;20005;-85
2021/10/11 11:20:30;;;;;;;31.33;23.05;;;17.50;99.90;;;;;;6182442;23;19997;-85
2021/10/11 11:23:10;;;;;;;34.63;23.02;;;17.50;99.90;;;;;;6182880;23;20087;-85
2021/10/11 11:25:44;;;;;;;34.08;24.27;;;17.60;99.90;;;;;;6182703;23;20004;-85
2021/10/11 11:28:12;;;;;;;31.95;23.05;;;17.70;99.90;;;;;;6182907;23;20457;-85
2021/10/11 11:30:39;;;;;;;28.55;21.10;;;17.80;99.90;;;;;;6156806;23;20023;-84
2021/10/11 11:33:14;;;;;;;32.50;23.10;;;18.00;99.90;;;;;;6182571;23;20454;-84
2021/10/11 11:35:44;;;;;;;28.05;22.10;;;18.10;99.90;;;;;;6182666;23;20009;-84
2021/10/11 11:38:12;;;;;;;29.35;20.33;;;18.30;99.90;;;;;;6182478;23;20001;-84
2021/10/11 11:40:41;;;;;;;28.10;19.30;;;18.40;99.90;;;;;;6182921;23;20001;-84
2021/10/11 11:43:09;;;;;;;25.67;19.50;;;18.50;99.90;;;;;;6182676;23;20485;-84
2021/10/11 11:45:46;;;;;;;22.60;18.67;;;18.70;99.90;;;;;;6182151;23;20024;-86
2021/10/11 11:48:16;;;;;;;27.95;19.52;;;18.80;99.90;;;;;;6182380;23;20088;-84
2021/10/11 11:50:42;;;;;;;20.48;16.77;;;18.90;99.90;;;;;;6182646;23;20008;-85
2021/10/11 11:53:13;;;;;;;24.80;16.15;;;18.80;99.90;;;;;;6182374;23;20011;-84
2021/10/11 11:55:41;;;;;;;18.40;13.95;;;18.90;99.90;;;;;;6182561;23;20393;-85
2021/10/11 11:58:13;;;;;;;18.70;13.27;;;18.90;99.90;;;;;;6156153;23;20083;-84
2021/10/11 12:00:42;;;;;;;17.42;13.90;;;19.10;99.90;;;;;;6156185;23;20009;-84
2021/10/11 12:03:10;;;;;;;20.63;14.70;;;19.00;99.90;;;;;;6156003;23;20072;-85
2021/10/11 12:05:36;;;;;;;16.38;12.75;;;19.10;99.90;;;;;;6182423;23;20384;-85
2021/10/11 12:08:02;;;;;;;20.00;10.20;;;19.10;99.90;;;;;;6182905;23;20001;-86
2021/10/11 12:10:29;;;;;;;10.07;8.15;;;19.10;99.90;;;;;;6182764;23;20456;-86
2021/10/11 12:13:04;;;;;;;9.35;8.00;;;19.10;99.90;;;;;;6182107;23;20073;-86
2021/10/11 12:15:31;;;;;;;9.27;7.95;;;19.20;99.90;;;;;;6182536;23;20005;-86
2021/10/11 12:18:10;;;;;;;10.30;7.45;;;19.30;99.90;;;;;;6182538;23;20012;-86
2021/10/11 12:20:47;;;;;;;11.43;8.00;;;19.20;99.90;;;;;;6182529;23;20005;-87
2021/10/11 12:23:17;;;;;;;9.75;7.63;;;19.20;99.90;;;;;;6182591;23;20028;-86
2021/10/11 12:25:44;;;;;;;9.82;7.25;;;19.20;99.90;;;;;;6182071;23;20028;-87
2021/10/11 12:28:19;;;;;;;8.40;7.10;;;19.20;99.90;;;;;;6182214;23;20028;-86
2021/10/11 12:30:47;;;;;;;7.78;6.20;;;19.40;99.90;;;;;;6181895;23;19997;-86
2021/10/11 12:33:17;;;;;;;8.43;6.53;;;19.60;99.90;;;;;;6182168;23;20080;-86